createdAt,value
2023-05-19T00:00:17.469Z,53.91
2023-05-19T00:01:17.610Z,53.75
2023-05-19T00:02:17.583Z,53.85
2023-05-19T00:03:17.942Z,53.88
2023-05-19T00:04:17.644Z,53.88
2023-05-19T00:05:17.678Z,53.97
2023-05-19T00:06:17.830Z,53.75
2023-05-19T00:07:17.755Z,53.77
2023-05-19T00:08:17.758Z,53.84
2023-05-19T00:09:17.779Z,54.14
2023-05-19T00:11:24.807Z,53.95
2023-05-19T00:12:24.803Z,53.91
2023-05-19T00:13:24.794Z,53.70
2023-05-19T00:14:24.790Z,53.71
2023-05-19T00:15:24.804Z,53.82
2023-05-19T00:16:24.939Z,53.90
2023-05-19T00:17:24.802Z,53.97
2023-05-19T00:18:24.771Z,53.87
2023-05-19T00:19:25.142Z,53.89
2023-05-19T00:20:24.786Z,53.84
2023-05-19T00:21:24.747Z,53.91
2023-05-19T00:22:24.726Z,53.89
2023-05-19T00:23:24.752Z,53.92
2023-05-19T00:24:24.720Z,53.76
2023-05-19T00:25:24.707Z,53.75
2023-05-19T00:26:24.711Z,53.89
2023-05-19T00:27:24.708Z,54.22
2023-05-19T00:28:24.695Z,54.34
2023-05-19T00:29:24.680Z,54.13
2023-05-19T00:30:24.685Z,54.11
2023-05-19T00:31:24.703Z,54.15
2023-05-19T00:32:24.729Z,54.41
2023-05-19T00:33:24.651Z,54.39
2023-05-19T00:34:24.650Z,54.27
2023-05-19T00:35:24.649Z,54.34
2023-05-19T00:36:24.642Z,54.51
2023-05-19T00:37:24.639Z,54.60
2023-05-19T00:38:24.623Z,54.82
2023-05-19T00:39:24.608Z,54.87
2023-05-19T00:40:24.590Z,54.88
2023-05-19T00:41:24.625Z,54.82
2023-05-19T00:42:24.597Z,54.88
2023-05-19T00:43:24.582Z,54.92
2023-05-19T00:44:24.586Z,54.97
2023-05-19T00:45:24.601Z,55.00
2023-05-19T00:46:24.694Z,54.83
2023-05-19T00:47:24.757Z,54.73
2023-05-19T00:48:24.756Z,54.58
2023-05-19T00:49:24.792Z,54.76
2023-05-19T00:50:24.847Z,54.76
2023-05-19T00:51:24.925Z,54.85
2023-05-19T00:52:24.981Z,55.01
2023-05-19T00:53:25.051Z,54.93
2023-05-19T00:54:25.086Z,54.97
2023-05-19T00:55:25.166Z,54.76
2023-05-19T00:56:25.216Z,54.88
2023-05-19T00:57:25.286Z,54.94
2023-05-19T00:58:25.333Z,54.94
2023-05-19T00:59:25.392Z,55.22
2023-05-19T01:00:25.474Z,55.24
2023-05-19T01:01:25.540Z,55.15
2023-05-19T01:02:25.667Z,55.11
2023-05-19T01:03:25.683Z,54.90
2023-05-19T01:04:25.681Z,55.07
2023-05-19T01:05:25.714Z,55.20
2023-05-19T01:06:25.760Z,55.41
2023-05-19T01:07:25.812Z,55.40
2023-05-19T01:08:25.873Z,55.45
2023-05-19T01:09:25.897Z,55.49
2023-05-19T01:10:25.968Z,55.39
2023-05-19T01:11:26.016Z,55.28
2023-05-19T01:12:26.056Z,55.33
2023-05-19T01:13:26.088Z,55.33
2023-05-19T01:14:26.165Z,55.41
2023-05-19T01:15:26.217Z,55.41
2023-05-19T01:16:26.349Z,55.45
2023-05-19T01:17:26.371Z,55.58
2023-05-19T01:18:26.349Z,55.51
2023-05-19T01:19:26.508Z,55.58
2023-05-19T01:20:26.452Z,55.57
2023-05-19T01:21:26.486Z,55.62
2023-05-19T01:22:26.501Z,55.56
2023-05-19T01:23:26.521Z,55.58
2023-05-19T01:24:26.562Z,55.62
2023-05-19T01:25:26.583Z,55.84
2023-05-19T01:26:26.627Z,55.80
2023-05-19T01:27:26.677Z,55.68
2023-05-19T01:28:26.754Z,55.71
2023-05-19T01:29:26.794Z,55.49
2023-05-19T01:30:26.814Z,55.55
2023-05-19T01:31:26.890Z,55.60
2023-05-19T01:32:26.873Z,55.80
2023-05-19T01:33:26.863Z,55.76
2023-05-19T01:34:26.868Z,55.72
2023-05-19T01:35:26.866Z,55.64
2023-05-19T01:36:26.870Z,55.87
2023-05-19T01:37:26.860Z,56.05
2023-05-19T01:38:26.861Z,56.17
2023-05-19T01:39:26.877Z,55.98
2023-05-19T01:40:26.911Z,56.14
2023-05-19T01:41:26.900Z,55.88
2023-05-19T01:42:26.940Z,55.91
2023-05-19T01:43:26.957Z,56.13
2023-05-19T01:44:26.960Z,56.12
2023-05-19T01:45:26.946Z,56.22
2023-05-19T01:46:27.097Z,56.32
2023-05-19T01:47:27.008Z,56.40
2023-05-19T01:48:26.952Z,56.50
2023-05-19T01:49:26.965Z,56.48
2023-05-19T01:50:26.975Z,56.76
2023-05-19T01:51:26.954Z,56.63
2023-05-19T01:52:26.938Z,56.27
2023-05-19T01:53:26.959Z,56.36
2023-05-19T01:54:26.951Z,56.44
2023-05-19T01:55:26.949Z,56.28
2023-05-19T01:56:26.953Z,56.18
2023-05-19T01:57:26.992Z,56.28
2023-05-19T01:58:27.020Z,56.10
2023-05-19T01:59:27.041Z,56.15
2023-05-19T02:00:27.101Z,55.90
2023-05-19T02:01:27.172Z,55.86
2023-05-19T02:02:27.170Z,55.78
2023-05-19T02:03:27.090Z,55.85
2023-05-19T02:04:27.154Z,56.22
2023-05-19T02:05:27.106Z,56.06
2023-05-19T02:06:27.139Z,56.09
2023-05-19T02:07:27.117Z,55.95
2023-05-19T02:08:27.121Z,55.88
2023-05-19T02:09:27.108Z,55.93
2023-05-19T02:10:27.134Z,56.16
2023-05-19T02:11:27.096Z,56.07
2023-05-19T02:12:27.139Z,56.03
2023-05-19T02:13:27.157Z,56.07
2023-05-19T02:14:27.173Z,56.06
2023-05-19T02:15:27.184Z,56.13
2023-05-19T02:16:27.209Z,56.27
2023-05-19T02:17:27.259Z,56.21
2023-05-19T02:18:27.233Z,56.07
2023-05-19T02:19:27.285Z,56.04
2023-05-19T02:20:27.276Z,55.92
2023-05-19T02:21:27.287Z,56.10
2023-05-19T02:22:27.307Z,56.08
2023-05-19T02:23:27.275Z,56.03
2023-05-19T02:24:27.341Z,56.06
2023-05-19T02:25:27.310Z,56.07
2023-05-19T02:26:27.319Z,56.18
2023-05-19T02:27:27.323Z,56.25
2023-05-19T02:28:27.314Z,56.40
2023-05-19T02:29:27.310Z,56.46
2023-05-19T02:30:27.315Z,56.39
2023-05-19T02:31:27.335Z,56.48
2023-05-19T02:32:27.329Z,56.44
2023-05-19T02:33:27.313Z,56.49
2023-05-19T02:34:27.307Z,56.51
2023-05-19T02:35:27.315Z,56.42
2023-05-19T02:36:27.315Z,56.38
2023-05-19T02:37:27.303Z,56.36
2023-05-19T02:38:27.302Z,56.48
2023-05-19T02:39:27.306Z,56.54
2023-05-19T02:40:27.342Z,56.44
2023-05-19T02:41:27.335Z,56.37
2023-05-19T02:42:27.349Z,56.42
2023-05-19T02:43:27.326Z,56.43
2023-05-19T02:44:27.335Z,56.29
2023-05-19T02:45:27.326Z,56.43
2023-05-19T02:46:27.339Z,56.40
2023-05-19T02:47:27.389Z,56.38
2023-05-19T02:48:27.328Z,56.46
2023-05-19T02:49:27.329Z,56.37
2023-05-19T02:50:27.365Z,56.49
2023-05-19T02:51:27.335Z,56.69
2023-05-19T02:52:27.335Z,56.55
2023-05-19T02:53:27.347Z,56.68
2023-05-19T02:54:27.354Z,56.67
2023-05-19T02:55:27.339Z,56.69
2023-05-19T02:56:27.361Z,56.51
2023-05-19T02:57:27.363Z,56.52
2023-05-19T02:58:27.403Z,56.60
2023-05-19T02:59:27.396Z,56.56
2023-05-19T03:00:27.418Z,56.58
2023-05-19T03:01:27.413Z,56.80
2023-05-19T03:02:27.505Z,56.80
2023-05-19T03:03:27.503Z,56.74
2023-05-19T03:04:27.496Z,56.56
2023-05-19T03:05:27.497Z,56.63
2023-05-19T03:06:27.479Z,56.69
2023-05-19T03:07:27.514Z,56.89
2023-05-19T03:08:27.521Z,57.06
2023-05-19T03:09:27.532Z,57.09
2023-05-19T03:10:27.556Z,57.12
2023-05-19T03:11:27.568Z,57.21
2023-05-19T03:12:27.596Z,57.23
2023-05-19T03:13:27.578Z,57.01
2023-05-19T03:14:27.588Z,56.94
2023-05-19T03:15:27.619Z,56.81
2023-05-19T03:16:27.645Z,56.83
2023-05-19T03:17:27.714Z,56.94
2023-05-19T03:18:27.687Z,57.02
2023-05-19T03:19:27.821Z,57.03
2023-05-19T03:20:27.773Z,56.89
2023-05-19T03:21:27.798Z,56.89
2023-05-19T03:22:27.833Z,56.99
2023-05-19T03:23:27.854Z,56.84
2023-05-19T03:24:27.843Z,57.01
2023-05-19T03:25:27.869Z,57.02
2023-05-19T03:26:27.880Z,56.90
2023-05-19T03:27:27.890Z,57.04
2023-05-19T03:28:27.887Z,57.07
2023-05-19T03:29:27.890Z,57.05
2023-05-19T03:30:27.919Z,56.92
2023-05-19T03:31:27.912Z,56.94
2023-05-19T03:32:27.974Z,56.99
2023-05-19T03:33:28.080Z,56.89
2023-05-19T03:34:27.952Z,56.86
2023-05-19T03:35:27.966Z,57.07
2023-05-19T03:36:27.981Z,57.02
2023-05-19T03:37:28.020Z,57.16
2023-05-19T03:38:28.022Z,57.16
2023-05-19T03:39:28.052Z,57.01
2023-05-19T03:40:28.043Z,57.07
2023-05-19T03:41:28.560Z,57.09
2023-05-19T03:42:28.099Z,56.91
2023-05-19T03:43:28.114Z,57.13
2023-05-19T03:44:28.154Z,57.08
2023-05-19T03:45:28.197Z,57.14
2023-05-19T03:46:28.513Z,57.20
2023-05-19T03:47:28.257Z,57.30
2023-05-19T03:48:28.291Z,57.37
2023-05-19T03:49:28.301Z,57.61
2023-05-19T03:50:28.349Z,57.40
2023-05-19T03:51:28.376Z,57.37
2023-05-19T03:52:28.416Z,57.41
2023-05-19T03:53:28.433Z,57.53
2023-05-19T03:54:28.453Z,57.54
2023-05-19T03:55:28.456Z,57.59
2023-05-19T03:56:28.480Z,57.63
2023-05-19T03:57:28.495Z,57.49
2023-05-19T03:58:28.530Z,57.54
2023-05-19T03:59:28.532Z,57.63
2023-05-19T04:00:28.546Z,57.60
2023-05-19T04:01:28.580Z,57.44
2023-05-19T04:02:28.679Z,57.26
2023-05-19T04:03:28.658Z,57.25
2023-05-19T04:04:28.717Z,57.22
2023-05-19T04:05:28.655Z,57.22
2023-05-19T04:06:28.672Z,57.23
2023-05-19T04:07:28.703Z,57.42
2023-05-19T04:08:28.721Z,57.27
2023-05-19T04:09:28.754Z,57.21
2023-05-19T04:10:28.786Z,57.25
2023-05-19T04:11:28.796Z,57.15
2023-05-19T04:12:28.805Z,57.30
2023-05-19T04:13:28.855Z,57.23
2023-05-19T04:14:28.870Z,57.36
2023-05-19T04:15:29.001Z,57.26
2023-05-19T04:16:28.988Z,57.24
2023-05-19T04:17:28.951Z,57.14
2023-05-19T04:18:29.372Z,57.19
2023-05-19T04:19:29.024Z,57.27
2023-05-19T04:20:28.944Z,57.22
2023-05-19T04:21:28.947Z,57.13
2023-05-19T04:22:28.986Z,57.26
2023-05-19T04:23:28.999Z,57.23
2023-05-19T04:24:28.993Z,57.11
2023-05-19T04:25:29.028Z,56.88
2023-05-19T04:26:29.053Z,57.01
2023-05-19T04:27:29.083Z,56.88
2023-05-19T04:28:29.084Z,57.05
2023-05-19T04:29:29.082Z,57.24
2023-05-19T04:30:29.132Z,57.13
2023-05-19T04:31:29.137Z,57.15
2023-05-19T04:32:29.178Z,57.39
2023-05-19T04:33:29.149Z,57.30
2023-05-19T04:34:29.152Z,57.17
2023-05-19T04:35:29.134Z,57.01
2023-05-19T04:36:29.161Z,56.95
2023-05-19T04:37:29.151Z,56.90
2023-05-19T04:38:29.175Z,56.96
2023-05-19T04:39:29.190Z,56.90
2023-05-19T04:40:29.190Z,56.89
2023-05-19T04:41:29.244Z,56.95
2023-05-19T04:42:29.257Z,57.05
2023-05-19T04:43:29.285Z,57.07
2023-05-19T04:44:29.284Z,57.08
2023-05-19T04:45:29.311Z,56.82
2023-05-19T04:46:29.333Z,56.61
2023-05-19T04:47:52.239Z,56.55
2023-05-19T04:48:52.137Z,56.34
2023-05-19T04:49:52.116Z,56.45
2023-05-19T04:50:52.127Z,56.53
2023-05-19T04:51:53.367Z,56.68
2023-05-19T04:52:52.092Z,56.70
2023-05-19T04:53:52.120Z,56.58
2023-05-19T04:54:52.079Z,56.56
2023-05-19T04:55:52.194Z,56.76
2023-05-19T04:56:52.089Z,56.60
2023-05-19T04:57:52.075Z,56.95
2023-05-19T04:58:52.075Z,56.86
2023-05-19T04:59:52.056Z,56.39
2023-05-19T05:00:52.049Z,56.53
2023-05-19T05:01:52.085Z,56.84
2023-05-19T05:02:52.110Z,56.58
2023-05-19T05:03:52.038Z,56.36
2023-05-19T05:04:52.016Z,56.67
2023-05-19T05:05:52.004Z,56.35
2023-05-19T05:06:52.047Z,56.00
2023-05-19T05:09:11.284Z,55.89
2023-05-19T05:10:11.274Z,55.74
2023-05-19T05:11:11.271Z,55.86
2023-05-19T05:12:11.255Z,55.99
2023-05-19T05:13:11.998Z,56.13
2023-05-19T05:14:11.254Z,56.03
2023-05-19T05:15:11.251Z,55.94
2023-05-19T05:16:11.331Z,55.95
2023-05-19T05:17:11.229Z,55.86
2023-05-19T05:18:11.321Z,55.49
2023-05-19T05:19:11.263Z,55.70
2023-05-19T05:20:11.222Z,55.58
2023-05-19T05:21:11.228Z,55.63
2023-05-19T05:22:11.219Z,55.72
2023-05-19T05:23:11.191Z,55.79
2023-05-19T05:24:11.169Z,55.66
2023-05-19T05:25:11.182Z,56.05
2023-05-19T05:26:11.203Z,55.91
2023-05-19T05:27:11.149Z,55.91
2023-05-19T05:28:11.157Z,55.78
2023-05-19T05:30:30.448Z,55.63
2023-05-19T05:31:30.443Z,55.82
2023-05-19T05:32:30.496Z,55.70
2023-05-19T05:33:30.484Z,55.70
2023-05-19T05:34:30.414Z,55.78
2023-05-19T05:35:30.536Z,56.04
2023-05-19T05:36:30.390Z,56.03
2023-05-19T05:37:30.380Z,55.92
2023-05-19T05:38:30.388Z,56.12
2023-05-19T05:39:30.403Z,56.29
2023-05-19T05:40:30.385Z,56.40
2023-05-19T05:41:30.383Z,56.36
2023-05-19T05:42:30.365Z,56.48
2023-05-19T05:43:30.348Z,56.42
2023-05-19T05:44:30.365Z,56.09
2023-05-19T05:45:30.465Z,56.06
2023-05-19T05:46:30.406Z,55.64
2023-05-19T05:47:30.379Z,55.35
2023-05-19T05:48:30.321Z,55.37
2023-05-19T05:49:30.327Z,55.44
2023-05-19T05:50:30.320Z,55.45
2023-05-19T05:51:30.360Z,55.35
2023-05-19T05:52:30.318Z,55.65
2023-05-19T05:53:30.290Z,55.74
2023-05-19T05:54:30.276Z,55.60
2023-05-19T05:55:30.474Z,55.77
2023-05-19T05:56:30.292Z,55.85
2023-05-19T05:57:30.289Z,56.13
2023-05-19T05:58:30.270Z,56.31
2023-05-19T05:59:30.275Z,56.35
2023-05-19T06:00:30.478Z,56.08
2023-05-19T06:01:30.355Z,55.99
2023-05-19T06:02:30.441Z,55.67
2023-05-19T06:03:30.449Z,55.43
2023-05-19T06:04:30.484Z,55.75
2023-05-19T06:05:30.548Z,55.73
2023-05-19T06:06:30.556Z,55.31
2023-05-19T06:07:30.596Z,55.30
2023-05-19T06:08:30.634Z,55.38
2023-05-19T06:09:30.666Z,55.73
2023-05-19T06:10:30.808Z,55.82
2023-05-19T06:11:30.740Z,55.82
2023-05-19T06:12:30.797Z,55.66
2023-05-19T06:13:30.813Z,56.13
2023-05-19T06:14:30.819Z,55.74
2023-05-19T06:15:30.877Z,55.55
2023-05-19T06:16:30.946Z,54.86
2023-05-19T06:17:30.905Z,54.61
2023-05-19T06:18:30.889Z,55.05
2023-05-19T06:19:30.978Z,55.24
2023-05-19T06:20:31.148Z,55.30
2023-05-19T06:21:30.973Z,55.23
2023-05-19T06:22:30.969Z,55.02
2023-05-19T06:23:30.990Z,55.19
2023-05-19T06:24:31.034Z,55.13
2023-05-19T06:25:31.142Z,55.19
2023-05-19T06:26:31.030Z,55.06
2023-05-19T06:27:32.628Z,55.09
2023-05-19T06:28:31.047Z,55.21
2023-05-19T06:29:31.040Z,55.35
2023-05-19T06:30:31.184Z,55.37
2023-05-19T06:31:31.107Z,55.36
2023-05-19T06:32:31.023Z,55.39
2023-05-19T06:33:31.022Z,55.13
2023-05-19T06:34:30.985Z,55.12
2023-05-19T06:35:31.002Z,55.04
2023-05-19T06:36:31.005Z,55.21
2023-05-19T06:37:30.978Z,55.16
2023-05-19T06:38:30.973Z,54.94
2023-05-19T06:39:30.988Z,55.17
2023-05-19T06:40:31.158Z,55.40
2023-05-19T06:41:30.969Z,55.31
2023-05-19T06:42:30.964Z,55.20
2023-05-19T06:43:30.932Z,55.17
2023-05-19T06:44:30.916Z,54.86
2023-05-19T06:45:30.910Z,55.05
2023-05-19T06:46:31.012Z,55.19
2023-05-19T06:47:30.943Z,55.14
2023-05-19T06:48:30.893Z,54.65
2023-05-19T06:49:30.886Z,53.82
2023-05-19T06:50:31.184Z,53.75
2023-05-19T06:51:30.891Z,53.37
2023-05-19T06:52:30.877Z,53.65
2023-05-19T06:53:30.867Z,53.92
2023-05-19T06:54:30.844Z,54.28
2023-05-19T06:55:30.856Z,54.31
2023-05-19T06:56:30.842Z,54.60
2023-05-19T06:57:30.852Z,54.85
2023-05-19T06:58:30.836Z,54.36
2023-05-19T06:59:30.845Z,54.54
2023-05-19T07:00:30.835Z,54.46
2023-05-19T07:01:30.948Z,54.44
2023-05-19T07:02:30.998Z,54.55
2023-05-19T07:03:30.898Z,54.74
2023-05-19T07:04:30.821Z,54.56
2023-05-19T07:05:30.782Z,54.22
2023-05-19T07:06:30.808Z,54.48
2023-05-19T07:07:30.801Z,54.53
2023-05-19T07:08:30.763Z,54.48
2023-05-19T07:09:30.769Z,53.86
2023-05-19T07:10:31.023Z,53.28
2023-05-19T07:11:30.742Z,53.52
2023-05-19T07:12:30.758Z,53.74
2023-05-19T07:13:30.740Z,53.96
2023-05-19T07:14:30.718Z,53.83
2023-05-19T07:15:30.729Z,53.44
2023-05-19T07:16:30.805Z,52.96
2023-05-19T07:17:30.727Z,52.91
2023-05-19T07:18:30.699Z,52.86
2023-05-19T07:19:30.766Z,51.94
2023-05-19T07:20:30.871Z,51.80
2023-05-19T07:21:30.670Z,52.21
2023-05-19T07:22:30.673Z,52.09
2023-05-19T07:23:30.669Z,52.16
2023-05-19T07:24:30.684Z,52.27
2023-05-19T07:25:30.672Z,51.86
2023-05-19T07:26:30.669Z,51.28
2023-05-19T07:27:30.642Z,51.82
2023-05-19T07:28:30.690Z,52.18
2023-05-19T07:29:30.621Z,53.08
2023-05-19T07:30:30.808Z,52.54
2023-05-19T07:31:30.675Z,52.02
2023-05-19T07:32:30.617Z,51.80
2023-05-19T07:33:30.584Z,51.72
2023-05-19T07:34:30.595Z,52.75
2023-05-19T07:35:30.563Z,52.81
2023-05-19T07:36:30.593Z,52.77
2023-05-19T07:37:30.556Z,52.09
2023-05-19T07:38:30.577Z,52.02
2023-05-19T07:39:30.535Z,51.77
2023-05-19T07:40:30.744Z,51.65
2023-05-19T07:41:30.528Z,52.02
2023-05-19T07:42:30.523Z,52.15
2023-05-19T07:43:30.521Z,52.20
2023-05-19T07:44:30.530Z,52.26
2023-05-19T07:45:30.498Z,52.37
2023-05-19T07:46:30.598Z,52.41
2023-05-19T07:47:30.509Z,52.41
2023-05-19T07:48:30.495Z,52.10
2023-05-19T07:49:30.460Z,52.30
2023-05-19T07:50:30.592Z,52.45
2023-05-19T07:51:30.477Z,52.29
2023-05-19T07:52:30.459Z,53.28
2023-05-19T07:53:30.458Z,52.78
2023-05-19T07:54:30.454Z,52.79
2023-05-19T07:55:30.444Z,53.39
2023-05-19T07:56:30.434Z,53.56
2023-05-19T07:57:30.407Z,54.27
2023-05-19T07:58:30.413Z,54.37
2023-05-19T07:59:30.462Z,53.25
2023-05-19T08:00:30.543Z,53.13
2023-05-19T08:01:30.592Z,52.54
2023-05-19T08:02:30.636Z,51.28
2023-05-19T08:03:30.916Z,50.92
2023-05-19T08:04:30.770Z,50.74
2023-05-19T08:05:30.797Z,50.30
2023-05-19T08:06:30.908Z,50.02
2023-05-19T08:07:30.880Z,49.84
2023-05-19T08:08:30.940Z,49.47
2023-05-19T08:09:30.993Z,49.41
2023-05-19T08:10:31.361Z,49.98
2023-05-19T08:11:31.083Z,49.56
2023-05-19T08:12:31.148Z,50.25
2023-05-19T08:13:31.199Z,50.23
2023-05-19T08:14:31.229Z,49.38
2023-05-19T08:15:31.295Z,49.37
2023-05-19T08:16:31.367Z,48.71
2023-05-19T08:17:31.358Z,48.46
2023-05-19T08:18:31.418Z,49.06
2023-05-19T08:19:31.458Z,48.93
2023-05-19T08:20:31.594Z,49.25
2023-05-19T08:21:31.486Z,49.73
2023-05-19T08:22:31.457Z,50.17
2023-05-19T08:23:31.465Z,51.16
2023-05-19T08:24:31.480Z,51.43
2023-05-19T08:25:31.462Z,52.21
2023-05-19T08:26:31.496Z,51.47
2023-05-19T08:27:31.490Z,51.23
2023-05-19T08:28:31.498Z,51.46
2023-05-19T08:29:31.525Z,51.69
2023-05-19T08:30:31.742Z,51.63
2023-05-19T08:31:31.663Z,51.11
2023-05-19T08:32:31.691Z,51.21
2023-05-19T08:33:31.685Z,51.15
2023-05-19T08:34:31.699Z,51.00
2023-05-19T08:35:31.771Z,51.10
2023-05-19T08:36:31.730Z,50.73
2023-05-19T08:37:33.355Z,50.92
2023-05-19T08:38:31.724Z,51.09
2023-05-19T08:39:31.727Z,51.63
2023-05-19T08:40:32.026Z,51.79
2023-05-19T08:41:31.766Z,51.46
2023-05-19T08:42:31.729Z,51.43
2023-05-19T08:43:31.751Z,51.60
2023-05-19T08:44:31.746Z,51.87
2023-05-19T08:45:31.939Z,52.13
2023-05-19T08:46:31.806Z,52.12
2023-05-19T08:47:31.779Z,52.36
2023-05-19T08:48:31.757Z,51.61
2023-05-19T08:49:31.777Z,51.61
2023-05-19T08:50:31.942Z,51.68
2023-05-19T08:51:31.759Z,51.21
2023-05-19T08:52:31.763Z,51.22
2023-05-19T08:53:34.219Z,51.37
2023-05-19T08:54:31.760Z,50.98
2023-05-19T08:55:31.942Z,51.47
2023-05-19T08:56:31.756Z,51.40
2023-05-19T08:57:31.766Z,51.52
2023-05-19T08:58:31.731Z,51.49
2023-05-19T08:59:31.733Z,50.70
2023-05-19T09:00:31.974Z,50.24
2023-05-19T09:01:31.835Z,50.19
2023-05-19T09:02:31.741Z,50.16
2023-05-19T09:03:31.772Z,50.19
2023-05-19T09:04:31.759Z,50.18
2023-05-19T09:05:31.954Z,50.48
2023-05-19T09:06:31.709Z,50.34
2023-05-19T09:07:31.698Z,50.27
2023-05-19T09:08:31.689Z,51.68
2023-05-19T09:09:31.658Z,51.45
2023-05-19T09:10:31.669Z,51.56
2023-05-19T09:11:31.654Z,52.13
2023-05-19T09:12:31.678Z,51.90
2023-05-19T09:13:31.673Z,51.34
2023-05-19T09:14:31.642Z,52.34
2023-05-19T09:15:31.882Z,52.57
2023-05-19T09:16:31.664Z,51.25
2023-05-19T09:17:31.684Z,50.65
2023-05-19T09:18:31.600Z,50.62
2023-05-19T09:19:31.620Z,50.69
2023-05-19T09:20:31.594Z,50.25
2023-05-19T09:21:31.652Z,50.29
2023-05-19T09:22:31.600Z,50.45
2023-05-19T09:23:31.572Z,50.48
2023-05-19T09:24:31.558Z,50.45
2023-05-19T09:25:31.775Z,50.70
2023-05-19T09:26:31.536Z,50.01
2023-05-19T09:27:31.569Z,50.06
2023-05-19T09:28:31.547Z,50.16
2023-05-19T09:29:31.539Z,50.57
2023-05-19T09:30:31.532Z,50.67
2023-05-19T09:31:31.556Z,50.76
2023-05-19T09:32:31.597Z,50.94
2023-05-19T09:33:31.521Z,51.22
2023-05-19T09:34:31.518Z,50.83
2023-05-19T09:35:31.585Z,50.09
2023-05-19T09:36:31.491Z,50.52
2023-05-19T09:37:31.484Z,50.34
2023-05-19T09:38:31.460Z,49.73
2023-05-19T09:39:31.456Z,49.33
2023-05-19T09:40:31.445Z,49.79
2023-05-19T09:41:31.454Z,48.75
2023-05-19T09:42:31.526Z,49.19
2023-05-19T09:43:31.436Z,48.90
2023-05-19T09:44:31.434Z,49.57
2023-05-19T09:45:31.669Z,49.92
2023-05-19T09:46:31.490Z,49.67
2023-05-19T09:47:31.421Z,51.22
2023-05-19T09:48:31.426Z,51.52
2023-05-19T09:49:31.457Z,50.95
2023-05-19T09:50:31.413Z,51.08
2023-05-19T09:51:31.381Z,51.39
2023-05-19T09:52:31.370Z,50.54
2023-05-19T09:53:31.399Z,49.18
2023-05-19T09:54:31.372Z,49.87
2023-05-19T09:55:31.459Z,50.87
2023-05-19T09:56:31.336Z,50.50
2023-05-19T09:57:31.337Z,50.37
2023-05-19T09:58:31.337Z,50.02
2023-05-19T09:59:33.470Z,49.74
2023-05-19T10:00:31.616Z,49.88
2023-05-19T10:01:31.591Z,49.90
2023-05-19T10:02:31.616Z,50.00
2023-05-19T10:03:31.615Z,50.02
2023-05-19T10:04:31.752Z,50.43
2023-05-19T10:05:31.893Z,50.13
2023-05-19T10:06:31.779Z,49.67
2023-05-19T10:07:31.874Z,49.84
2023-05-19T10:08:31.958Z,50.23
2023-05-19T10:09:31.973Z,49.42
2023-05-19T10:10:32.049Z,49.52
2023-05-19T10:11:32.083Z,50.03
2023-05-19T10:12:32.145Z,50.00
2023-05-19T10:13:32.176Z,49.64
2023-05-19T10:14:32.177Z,49.59
2023-05-19T10:15:33.156Z,49.64
2023-05-19T10:16:32.204Z,49.99
2023-05-19T10:17:32.237Z,50.00
2023-05-19T10:18:32.157Z,49.32
2023-05-19T10:19:32.276Z,49.02
2023-05-19T10:20:32.357Z,49.34
2023-05-19T10:21:32.136Z,49.36
2023-05-19T10:22:32.145Z,49.52
2023-05-19T10:23:32.149Z,49.22
2023-05-19T10:24:32.110Z,48.70
2023-05-19T10:25:32.295Z,49.50
2023-05-19T10:26:32.111Z,50.35
2023-05-19T10:27:32.084Z,50.34
2023-05-19T10:28:32.071Z,49.90
2023-05-19T10:29:32.097Z,49.33
2023-05-19T10:30:32.088Z,49.06
2023-05-19T10:31:32.153Z,49.62
2023-05-19T10:32:32.153Z,50.20
2023-05-19T10:33:32.040Z,49.98
2023-05-19T10:34:32.061Z,49.52
2023-05-19T10:35:32.543Z,49.17
2023-05-19T10:36:32.058Z,48.93
2023-05-19T10:37:32.034Z,48.55
2023-05-19T10:38:32.022Z,48.65
2023-05-19T10:39:31.998Z,48.60
2023-05-19T10:40:31.998Z,48.38
2023-05-19T10:41:32.041Z,47.91
2023-05-19T10:42:31.998Z,49.44
2023-05-19T10:43:31.990Z,49.96
2023-05-19T10:44:31.989Z,49.78
2023-05-19T10:45:32.180Z,49.28
2023-05-19T10:46:32.134Z,49.14
2023-05-19T10:47:31.982Z,47.99
2023-05-19T10:48:31.940Z,47.88
2023-05-19T10:49:31.939Z,47.58
2023-05-19T10:50:31.949Z,47.48
2023-05-19T10:51:31.953Z,47.99
2023-05-19T10:52:31.914Z,47.92
2023-05-19T10:53:31.931Z,48.22
2023-05-19T10:54:31.916Z,47.63
2023-05-19T10:55:32.073Z,46.87
2023-05-19T10:56:31.974Z,47.70
2023-05-19T10:57:32.020Z,47.64
2023-05-19T10:58:32.008Z,47.64
2023-05-19T10:59:32.091Z,47.37
2023-05-19T11:00:32.074Z,48.19
2023-05-19T11:01:32.063Z,47.98
2023-05-19T11:02:32.163Z,48.26
2023-05-19T11:03:32.217Z,48.46
2023-05-19T11:04:32.338Z,46.97
2023-05-19T11:05:32.525Z,46.74
2023-05-19T11:06:32.384Z,47.08
2023-05-19T11:07:32.417Z,48.54
2023-05-19T11:08:32.442Z,47.74
2023-05-19T11:09:39.864Z,48.50
2023-05-19T11:10:33.484Z,48.37
2023-05-19T11:11:33.214Z,48.48
2023-05-19T11:12:32.459Z,48.02
2023-05-19T11:13:32.440Z,48.52
2023-05-19T11:14:32.446Z,47.98
2023-05-19T11:15:32.630Z,47.78
2023-05-19T11:16:32.537Z,48.26
2023-05-19T11:17:33.215Z,47.95
2023-05-19T11:18:32.432Z,47.16
2023-05-19T11:19:32.395Z,47.27
2023-05-19T11:20:32.402Z,47.25
2023-05-19T11:21:32.506Z,47.27
2023-05-19T11:22:32.445Z,47.48
2023-05-19T11:23:33.477Z,47.62
2023-05-19T11:24:32.476Z,47.24
2023-05-19T11:25:32.585Z,47.80
2023-05-19T11:26:32.456Z,47.68
2023-05-19T11:27:32.436Z,47.28
2023-05-19T11:28:32.421Z,47.34
2023-05-19T11:29:34.212Z,47.17
2023-05-19T11:30:32.419Z,47.64
2023-05-19T11:31:32.424Z,46.80
2023-05-19T11:32:32.528Z,46.76
2023-05-19T11:33:32.394Z,46.82
2023-05-19T11:34:32.400Z,46.17
2023-05-19T11:35:34.683Z,46.70
2023-05-19T11:36:32.402Z,47.85
2023-05-19T11:37:32.434Z,48.14
2023-05-19T11:38:32.394Z,48.25
2023-05-19T11:39:32.369Z,47.94
2023-05-19T11:40:32.361Z,48.66
2023-05-19T11:41:32.362Z,48.01
2023-05-19T11:42:32.415Z,48.04
2023-05-19T11:43:32.341Z,47.87
2023-05-19T11:44:32.363Z,46.95
2023-05-19T11:45:32.512Z,45.96
2023-05-19T11:46:32.356Z,46.49
2023-05-19T11:47:42.064Z,46.53
2023-05-19T11:48:33.348Z,46.59
2023-05-19T11:49:32.289Z,46.45
2023-05-19T11:50:32.312Z,46.93
2023-05-19T11:51:32.286Z,46.56
2023-05-19T11:52:32.297Z,46.19
2023-05-19T11:53:33.470Z,46.14
2023-05-19T11:54:32.276Z,45.86
2023-05-19T11:55:32.294Z,46.34
2023-05-19T11:56:32.234Z,46.10
2023-05-19T11:57:32.268Z,46.28
2023-05-19T11:58:32.230Z,46.41
2023-05-19T11:59:33.503Z,46.30
2023-05-19T12:00:32.234Z,45.90
2023-05-19T12:01:32.195Z,46.09
2023-05-19T12:02:32.292Z,46.09
2023-05-19T12:03:32.236Z,46.36
2023-05-19T12:04:32.248Z,46.27
2023-05-19T12:05:34.934Z,46.97
2023-05-19T12:06:33.277Z,46.05
2023-05-19T12:07:32.153Z,46.01
2023-05-19T12:08:32.166Z,46.67
2023-05-19T12:09:32.158Z,46.57
2023-05-19T12:10:32.141Z,46.90
2023-05-19T12:11:32.137Z,46.79
2023-05-19T12:12:32.132Z,47.09
2023-05-19T12:13:32.120Z,47.51
2023-05-19T12:14:32.140Z,46.30
2023-05-19T12:15:32.226Z,46.29
2023-05-19T12:16:33.436Z,46.56
2023-05-19T12:17:32.105Z,46.85
2023-05-19T12:18:32.156Z,46.04
2023-05-19T12:19:32.249Z,46.50
2023-05-19T12:20:32.290Z,47.69
2023-05-19T12:21:33.956Z,47.67
2023-05-19T12:22:32.365Z,47.52
2023-05-19T12:23:32.408Z,46.96
2023-05-19T12:24:32.473Z,46.66
2023-05-19T12:25:32.915Z,46.24
2023-05-19T12:26:32.574Z,46.05
2023-05-19T12:27:34.754Z,46.36
2023-05-19T12:28:32.678Z,47.03
2023-05-19T12:29:32.700Z,47.28
2023-05-19T12:30:33.640Z,46.77
2023-05-19T12:31:32.862Z,46.59
2023-05-19T12:32:32.893Z,46.62
2023-05-19T12:33:33.603Z,46.39
2023-05-19T12:34:32.875Z,45.72
2023-05-19T12:35:32.860Z,45.92
2023-05-19T12:36:32.867Z,46.52
2023-05-19T12:37:32.849Z,46.51
2023-05-19T12:38:32.865Z,47.18
2023-05-19T12:39:32.835Z,46.94
2023-05-19T12:40:33.104Z,47.07
2023-05-19T12:41:32.823Z,46.56
2023-05-19T12:42:32.816Z,47.34
2023-05-19T12:43:32.815Z,46.82
2023-05-19T12:44:32.794Z,46.75
2023-05-19T12:45:32.821Z,46.35
2023-05-19T12:46:32.941Z,46.01
2023-05-19T12:47:32.796Z,46.43
2023-05-19T12:48:32.765Z,46.04
2023-05-19T12:49:32.774Z,45.56
2023-05-19T12:50:33.072Z,45.57
2023-05-19T12:51:32.752Z,46.55
2023-05-19T12:52:32.763Z,46.87
2023-05-19T12:53:32.743Z,46.38
2023-05-19T12:54:32.812Z,46.05
2023-05-19T12:55:32.717Z,45.46
2023-05-19T12:56:32.755Z,44.82